Morro Bay, CA (93442)

03:42 PM PST am 28. November 2014 (GMT -0800)
Bonita and Hwy 1 | Change Station
CLOSE
Current Station
Persönliche Wetterstationen
Location: Morro Bay, CA
Höhe: 45 ft
Wetterstationen in der Umgebung

Höhe 45 ft 35.39 °N, 120.86 °W | Updated 1 second ago

Heiter
Heiter
65.5 °F
gefühlte 65.5 °F
N
8.0
Wind Wechselnd Wind aus Nordwest
Gusts 8.0 mph

Heute
Max. -- | schwach -- °F
--% Regenrisiko
Gestern
Max. -- | schwach -- °F
Precip. -- inch
6:51 AM 4:51 PM
Erstes Viertel, 45% visible
Druck 29.91 inch
Sichtweite 10.0 Meilen
Wolken Heiter
Taupunkt 56 °F
Feuchtigkeit 73%
Regen 0.00 inch
Schneehöhe Nicht verfügbar..
UV 1 von 12
Pollen 2.30 von 12
Luftqualität Nicht verfügbar..
Flu Activity Nicht verfügbar..
METAR KSBP 282256Z 30008KT 10SM CLR 24/M08 A2991 RMK AO2 SLP129 T02391078

More Conditions Fewer Conditions

Druck 29.91 inch
Sichtweite 10.0 Meilen
Wolken Heiter
Taupunkt 56 °F
Feuchtigkeit 73%
Regen 0.00 inch
Schneehöhe Nicht verfügbar..
UV 1 von 12
Pollen 2.30 von 12
Luftqualität Nicht verfügbar..
Flu Activity Nicht verfügbar..
METAR KSBP 282256Z 30008KT 10SM CLR 24/M08 A2991 RMK AO2 SLP129 T02391078

More Conditions Fewer Conditions

10-Day Weather Forecast

Almanac

Astronomie

Nov. 28, 2014 Aufgang Untergang
Genaue Zeit
Bürgerliche Dämmerung
Nautische Dämmerung
Astronomische Dämmerung
Mond
Länge des sichtbaren Lichts
Tageslänge
Tomorrow will be .
, % of the Moon is Illuminated

Heutige Rekorde

State Highs State Lows

Community

WunderPhotos

Upload Photos

1,774,339 Fotos hochgeladen!

WunderBlogs® & News

Nearby

Luftqualität

  Luftqualität LQ Index Schadstoff
Not available.

Schneehöhe

Station Depth Höhe

Erdbebenaktivität

Stadt Distance Mag. Time & Date
Minimum magnitude displayed is 2.5.

küstennahe Wassertemperaturen

Ort Temperatur

Wetterstationen in der Umgebung